createdAt,value
2023-01-17T10:19:57.602Z,5.85
2023-01-17T10:22:32.752Z,5.20
2023-01-17T10:25:37.346Z,5.68
2023-01-17T10:28:23.817Z,5.57
2023-01-17T10:30:51.900Z,5.25
2023-01-17T10:33:27.090Z,5.40
2023-01-17T10:36:03.818Z,4.63
2023-01-17T10:38:38.653Z,4.32
2023-01-17T10:41:17.738Z,4.63
2023-01-17T10:44:17.546Z,4.32
2023-01-17T10:46:56.103Z,3.88
2023-01-17T10:49:26.261Z,4.07
2023-01-17T10:52:10.776Z,4.13
2023-01-17T10:55:08.811Z,4.35
2023-01-17T10:57:42.047Z,3.75
2023-01-17T11:00:30.806Z,4.03
2023-01-17T11:02:58.439Z,3.95
2023-01-17T11:05:31.348Z,3.50
2023-01-17T11:08:05.478Z,4.00
2023-01-17T11:10:54.286Z,3.63
2023-01-17T11:13:36.684Z,3.38
2023-01-17T11:16:09.976Z,3.53
2023-01-17T11:18:39.128Z,5.30
2023-01-17T11:21:23.294Z,3.92
2023-01-17T11:23:58.361Z,3.65
2023-01-17T11:26:34.404Z,4.32
2023-01-17T11:29:36.011Z,3.80
2023-01-17T11:32:22.574Z,3.92
2023-01-17T11:35:10.963Z,3.53
2023-01-17T11:37:38.656Z,3.63
2023-01-17T11:40:18.224Z,3.28
2023-01-17T11:42:45.028Z,3.10
2023-01-17T11:45:33.131Z,2.65
2023-01-17T11:48:08.789Z,2.40
2023-01-17T11:50:38.803Z,2.95
2023-01-17T11:53:28.041Z,3.22
2023-01-17T11:56:11.350Z,2.80
2023-01-17T11:58:42.289Z,2.42
2023-01-17T12:01:16.764Z,2.25
2023-01-17T12:04:08.302Z,2.30
2023-01-17T12:07:16.636Z,2.55
2023-01-17T12:09:58.360Z,2.55
2023-01-17T12:12:52.964Z,1.95
2023-01-17T12:15:44.923Z,2.00
2023-01-17T12:18:26.348Z,2.15
2023-01-17T12:21:16.545Z,1.73
2023-01-17T12:24:12.447Z,1.60
2023-01-17T12:26:59.481Z,1.65
2023-01-17T12:29:47.787Z,1.55
2023-01-17T12:32:36.804Z,1.33
2023-01-17T12:35:17.802Z,1.58
2023-01-17T12:38:04.184Z,1.20
2023-01-17T12:40:46.701Z,1.25
2023-01-17T12:43:37.122Z,1.23
2023-01-17T12:46:21.042Z,1.33
2023-01-17T12:49:09.956Z,1.40
2023-01-17T12:51:43.107Z,1.73
2023-01-17T12:54:18.601Z,1.92
2023-01-17T12:56:58.944Z,1.58
2023-01-17T12:59:41.546Z,1.70
2023-01-17T13:02:44.697Z,1.30
2023-01-17T13:05:40.593Z,1.17
2023-01-17T13:08:13.358Z,1.90
2023-01-17T13:10:48.553Z,1.90
2023-01-17T13:13:29.996Z,1.60
2023-01-17T13:16:07.824Z,1.70
2023-01-17T13:18:38.533Z,1.52
2023-01-17T13:21:31.270Z,1.60
2023-01-17T13:24:07.240Z,1.75
2023-01-17T13:26:55.651Z,1.95
2023-01-17T13:29:57.266Z,1.70
2023-01-17T13:32:45.225Z,1.60
2023-01-17T13:35:41.920Z,2.00
2023-01-17T13:38:37.749Z,2.00
2023-01-17T13:41:10.534Z,2.22
2023-01-17T13:43:40.540Z,1.50
2023-01-17T13:46:07.804Z,1.50
2023-01-17T13:48:40.763Z,2.10
2023-01-17T13:51:09.223Z,1.98
2023-01-17T13:53:36.873Z,2.17
2023-01-17T13:56:15.341Z,2.63
2023-01-17T13:58:54.341Z,2.30
2023-01-17T14:01:24.074Z,2.72
2023-01-17T14:03:53.976Z,2.40
2023-01-17T14:06:36.004Z,3.25
2023-01-17T14:09:11.927Z,3.35
2023-01-17T14:11:57.588Z,3.30
2023-01-17T14:14:45.257Z,2.47
2023-01-17T14:17:25.604Z,2.35
2023-01-17T14:20:21.650Z,1.83
2023-01-17T14:22:53.587Z,2.25
2023-01-17T14:25:25.403Z,1.40
2023-01-17T14:27:59.810Z,1.77
2023-01-17T14:30:32.512Z,1.83
2023-01-17T14:32:59.330Z,1.58
2023-01-17T14:35:29.937Z,1.70
2023-01-17T14:37:57.751Z,1.60
2023-01-17T14:40:27.497Z,1.73
2023-01-17T14:43:01.659Z,1.63
2023-01-17T14:45:31.349Z,1.85
2023-01-17T14:48:00.160Z,2.13
2023-01-17T14:50:30.480Z,2.38
2023-01-17T14:53:11.519Z,2.80
2023-01-17T14:55:48.940Z,1.95
2023-01-17T14:58:36.956Z,2.03
2023-01-17T15:01:15.573Z,2.20
2023-01-17T15:03:53.023Z,2.38
2023-01-17T15:06:40.637Z,1.70
2023-01-17T15:09:26.023Z,4.25
2023-01-17T15:11:54.060Z,4.30
2023-01-17T15:14:28.816Z,6.07
2023-01-17T15:16:56.152Z,3.50
2023-01-17T15:19:23.270Z,2.65
2023-01-17T15:21:53.282Z,2.33
2023-01-17T15:24:24.442Z,3.60
2023-01-17T15:26:51.883Z,2.03
2023-01-17T15:29:29.549Z,2.78
2023-01-17T15:32:01.662Z,2.28
2023-01-17T15:34:30.030Z,2.50
2023-01-17T15:37:20.925Z,3.00
2023-01-17T15:39:48.178Z,3.05
2023-01-17T15:42:24.784Z,2.35
2023-01-17T15:44:58.008Z,1.63
2023-01-17T15:47:38.048Z,3.30
2023-01-17T15:50:20.252Z,2.30
2023-01-17T15:52:55.996Z,3.05
2023-01-17T15:55:29.947Z,4.40
2023-01-17T15:57:57.542Z,4.63
2023-01-17T16:00:38.309Z,5.50
2023-01-17T16:03:36.111Z,6.43
2023-01-17T16:06:04.459Z,6.07
2023-01-17T16:08:40.798Z,6.35
2023-01-17T16:11:10.617Z,6.80
2023-01-17T16:13:39.195Z,7.13
2023-01-17T16:16:11.403Z,7.78
2023-01-17T16:18:38.593Z,7.57
2023-01-17T16:21:16.979Z,9.15
2023-01-17T16:23:43.848Z,8.32
2023-01-17T16:26:10.962Z,7.45
2023-01-17T16:28:38.530Z,8.13
2023-01-17T16:31:07.561Z,8.55
2023-01-17T16:33:34.524Z,8.70
2023-01-17T16:36:01.361Z,9.40
2023-01-17T16:38:28.209Z,10.88
2023-01-17T16:40:55.149Z,10.88
2023-01-17T16:43:21.989Z,10.48
2023-01-17T16:45:52.667Z,10.00
2023-01-17T16:48:20.421Z,11.70
2023-01-17T16:50:53.007Z,10.40
2023-01-17T16:55:53.686Z,8.05
2023-01-17T16:58:20.519Z,8.15
2023-01-17T17:00:50.516Z,7.78
2023-01-17T17:03:19.193Z,7.53
2023-01-17T17:05:53.777Z,7.97
2023-01-17T17:08:24.243Z,8.13
2023-01-17T17:19:05.252Z,7.68
2023-01-17T17:21:33.948Z,9.15
2023-01-17T17:24:01.925Z,8.90
2023-01-17T17:26:34.392Z,7.95
2023-01-17T17:29:02.209Z,8.35
2023-01-17T17:31:31.830Z,8.35
2023-01-17T17:34:03.001Z,9.57
2023-01-17T17:36:30.509Z,10.52
2023-01-17T17:38:58.121Z,8.43
2023-01-17T17:41:30.732Z,8.23
2023-01-17T17:46:25.451Z,8.18
2023-01-17T17:48:52.821Z,7.38
2023-01-17T17:51:27.159Z,8.63
2023-01-17T17:54:00.996Z,8.43
2023-01-17T17:56:32.194Z,9.82
2023-01-17T17:59:00.355Z,9.85
2023-01-17T18:01:27.580Z,9.63
2023-01-17T18:03:56.946Z,8.77
2023-01-17T18:06:24.164Z,8.50
2023-01-17T18:08:52.108Z,9.40
2023-01-17T18:11:24.372Z,14.10
2023-01-17T18:13:52.502Z,11.32
2023-01-17T18:16:41.727Z,8.82
2023-01-17T18:19:23.741Z,8.27
2023-01-17T18:21:51.605Z,8.77
2023-01-17T18:24:21.288Z,8.90
2023-01-17T18:26:57.097Z,8.57
2023-01-17T18:29:25.577Z,8.32
2023-01-17T18:31:53.511Z,18.45
2023-01-17T18:34:24.093Z,14.52
2023-01-17T18:36:51.526Z,12.10
2023-01-17T18:39:27.396Z,11.02
2023-01-17T18:41:54.729Z,11.45
2023-01-17T18:44:22.636Z,9.50
2023-01-17T18:46:50.777Z,9.13
2023-01-17T18:49:19.310Z,9.48
2023-01-17T18:51:50.384Z,8.85
2023-01-17T18:54:18.258Z,9.43
2023-01-17T18:56:45.194Z,8.65
2023-01-17T18:59:13.718Z,8.25
2023-01-17T19:01:44.535Z,10.55
2023-01-17T19:04:13.844Z,10.25
2023-01-17T19:06:42.885Z,10.52
2023-01-17T19:09:11.756Z,10.13
2023-01-17T19:11:38.710Z,12.52
2023-01-17T19:14:06.722Z,10.85
2023-01-17T19:16:39.367Z,10.32
2023-01-17T19:19:09.381Z,10.45
2023-01-17T19:21:36.636Z,11.93
2023-01-17T19:24:03.866Z,9.82
2023-01-17T19:26:31.098Z,10.77
2023-01-17T19:29:02.292Z,16.70
2023-01-17T19:31:30.438Z,19.25
2023-01-17T19:33:59.151Z,20.05
2023-01-17T19:36:34.405Z,22.48
2023-01-17T19:39:05.715Z,16.83
2023-01-17T19:41:34.873Z,14.70
2023-01-17T19:44:07.156Z,12.25
2023-01-17T19:46:35.165Z,12.32
2023-01-17T19:49:02.636Z,10.27
2023-01-17T19:51:29.886Z,10.07
2023-01-17T19:53:59.787Z,10.30
2023-01-17T19:56:27.823Z,10.65
2023-01-17T19:58:54.743Z,10.25
2023-01-17T20:01:28.697Z,11.10
2023-01-17T20:03:58.029Z,11.68
2023-01-17T20:06:28.841Z,11.57
2023-01-17T20:08:56.418Z,11.75
2023-01-17T20:11:24.954Z,10.43
2023-01-17T20:13:54.796Z,11.02
2023-01-17T20:16:27.155Z,11.30
2023-01-17T20:18:54.273Z,11.65
2023-01-17T20:21:27.488Z,11.70
2023-01-17T20:23:56.157Z,11.50
2023-01-17T20:26:34.363Z,12.85
2023-01-17T20:29:11.013Z,11.23
2023-01-17T20:31:42.530Z,11.38
2023-01-17T20:34:12.004Z,12.20
2023-01-17T20:36:41.757Z,10.98
2023-01-17T20:39:11.783Z,11.77
2023-01-17T20:41:40.823Z,12.23
2023-01-17T20:44:13.214Z,11.48
2023-01-17T20:46:41.310Z,11.45
2023-01-17T20:49:14.577Z,11.25
2023-01-17T20:51:44.073Z,12.93
2023-01-17T20:54:14.337Z,11.40
2023-01-17T20:56:41.618Z,10.25
2023-01-17T20:59:13.082Z,10.82
2023-01-17T21:01:40.012Z,10.60
2023-01-17T21:04:10.817Z,9.05
2023-01-17T21:06:39.716Z,9.82
2023-01-17T21:09:08.698Z,11.35
2023-01-17T21:11:36.978Z,13.43
